createdAt,value
2023-09-22T00:02:32.053Z,64.27
2023-09-22T00:05:03.038Z,64.06
2023-09-22T00:07:35.497Z,64.53
2023-09-22T00:10:09.234Z,64.38
2023-09-22T00:12:41.323Z,64.23
2023-09-22T00:15:15.002Z,64.78
2023-09-22T00:17:46.885Z,64.43
2023-09-22T00:20:19.454Z,64.59
2023-09-22T00:22:49.935Z,65.02
2023-09-22T00:25:23.162Z,65.05
2023-09-22T00:27:55.125Z,64.90
2023-09-22T00:30:29.328Z,65.23
2023-09-22T00:33:01.603Z,65.39
2023-09-22T00:35:33.684Z,65.07
2023-09-22T00:38:08.045Z,65.47
2023-09-22T00:40:40.120Z,65.43
2023-09-22T00:43:13.545Z,65.52
2023-09-22T00:45:48.469Z,65.90
2023-09-22T00:48:25.187Z,65.88
2023-09-22T00:50:58.165Z,66.02
2023-09-22T00:53:33.269Z,66.10
2023-09-22T00:56:06.063Z,66.20
2023-09-22T00:58:38.454Z,66.32
2023-09-22T01:01:10.783Z,66.81
2023-09-22T01:03:42.869Z,67.20
2023-09-22T01:06:15.028Z,67.33
2023-09-22T01:08:46.933Z,67.39
2023-09-22T01:11:18.880Z,67.26
2023-09-22T01:13:50.884Z,67.64
2023-09-22T01:16:23.001Z,67.73
2023-09-22T01:18:54.903Z,67.57
2023-09-22T01:21:30.309Z,67.66
2023-09-22T01:24:02.288Z,67.61
2023-09-22T01:26:34.161Z,67.88
2023-09-22T01:29:06.473Z,67.98
2023-09-22T01:31:39.285Z,68.05
2023-09-22T01:34:12.086Z,68.04
2023-09-22T01:36:44.875Z,68.16
2023-09-22T01:39:17.498Z,68.18
2023-09-22T01:41:49.500Z,68.38
2023-09-22T01:44:21.516Z,68.45
2023-09-22T01:46:53.564Z,68.36
2023-09-22T01:49:25.829Z,68.51
2023-09-22T01:51:57.716Z,68.68
2023-09-22T01:54:29.717Z,68.78
2023-09-22T01:57:01.729Z,68.91
2023-09-22T01:59:33.955Z,69.14
2023-09-22T02:02:05.897Z,69.53
2023-09-22T02:04:37.860Z,69.85
2023-09-22T02:07:11.599Z,69.75
2023-09-22T02:09:45.634Z,69.57
2023-09-22T02:12:18.424Z,69.60
2023-09-22T02:14:50.346Z,70.04
2023-09-22T02:17:22.456Z,70.16
2023-09-22T02:19:54.380Z,70.07
2023-09-22T02:22:26.373Z,70.51
2023-09-22T02:24:58.483Z,70.87
2023-09-22T02:27:30.525Z,70.80
2023-09-22T02:30:03.307Z,70.84
2023-09-22T02:32:35.600Z,71.00
2023-09-22T02:35:09.651Z,71.53
2023-09-22T02:37:41.881Z,71.48
2023-09-22T02:40:15.974Z,71.40
2023-09-22T02:42:48.130Z,72.08
2023-09-22T02:45:20.466Z,72.69
2023-09-22T02:47:54.669Z,72.97
2023-09-22T02:50:26.705Z,72.60
2023-09-22T02:52:58.676Z,72.60
2023-09-22T02:55:30.789Z,72.55
2023-09-22T02:58:02.720Z,73.16
2023-09-22T03:00:35.332Z,72.91
2023-09-22T03:03:08.133Z,72.83
2023-09-22T03:05:40.531Z,72.95
2023-09-22T03:08:12.485Z,72.79
2023-09-22T03:10:44.753Z,73.38
2023-09-22T03:13:16.914Z,73.63
2023-09-22T03:15:49.267Z,73.28
2023-09-22T03:18:20.674Z,73.27
2023-09-22T03:20:52.551Z,73.57
2023-09-22T03:23:25.135Z,73.87
2023-09-22T03:25:55.822Z,74.07
2023-09-22T03:28:27.850Z,74.41
2023-09-22T03:31:02.313Z,74.50
2023-09-22T03:33:35.136Z,74.54
2023-09-22T03:36:11.143Z,75.08
2023-09-22T03:38:48.082Z,74.48
2023-09-22T03:41:23.713Z,75.49
2023-09-22T03:43:55.826Z,75.50
2023-09-22T03:46:27.797Z,75.61
2023-09-22T03:48:59.878Z,75.51
2023-09-22T03:51:31.893Z,75.77
2023-09-22T03:54:04.112Z,75.74
2023-09-22T03:56:38.885Z,76.13
2023-09-22T03:59:12.791Z,76.20
2023-09-22T04:01:46.039Z,76.53
2023-09-22T04:04:18.716Z,76.57
2023-09-22T04:06:49.264Z,76.23
2023-09-22T04:09:21.216Z,76.03
2023-09-22T04:11:54.179Z,75.76
2023-09-22T04:14:26.064Z,75.37
2023-09-22T04:16:58.011Z,75.79
2023-09-22T04:19:34.442Z,75.90
2023-09-22T04:22:08.831Z,76.23
2023-09-22T04:24:48.533Z,76.08
2023-09-22T04:27:20.591Z,76.52
2023-09-22T04:29:54.286Z,76.86
2023-09-22T04:32:26.204Z,76.52
2023-09-22T04:35:00.635Z,76.56
2023-09-22T04:37:32.717Z,76.45
2023-09-22T04:40:10.620Z,76.42
2023-09-22T04:42:42.512Z,76.34
2023-09-22T04:45:14.674Z,76.41
2023-09-22T04:47:47.608Z,76.57
2023-09-22T04:50:20.142Z,76.93
2023-09-22T04:52:51.504Z,76.87
2023-09-22T04:55:23.904Z,76.98
2023-09-22T04:57:55.836Z,77.28
2023-09-22T05:00:28.458Z,77.50
2023-09-22T05:03:00.817Z,77.74
2023-09-22T05:05:32.128Z,77.32
2023-09-22T05:08:04.412Z,76.99
2023-09-22T05:10:36.430Z,76.86
2023-09-22T05:13:08.518Z,77.00
2023-09-22T05:15:42.924Z,77.01
2023-09-22T05:18:15.441Z,77.02
2023-09-22T05:20:47.841Z,77.18
2023-09-22T05:23:19.850Z,76.77
2023-09-22T05:25:51.918Z,76.69
2023-09-22T05:28:24.276Z,76.74
2023-09-22T05:30:58.636Z,79.69
2023-09-22T05:33:32.689Z,77.02
2023-09-22T05:36:06.545Z,76.32
2023-09-22T05:38:38.743Z,76.39
2023-09-22T05:41:12.098Z,76.45
2023-09-22T05:43:44.428Z,76.42
2023-09-22T05:46:16.428Z,76.32
2023-09-22T05:48:49.637Z,76.31
2023-09-22T05:51:22.228Z,76.45
2023-09-22T05:53:54.911Z,76.49
2023-09-22T05:56:27.104Z,76.44
2023-09-22T05:58:59.084Z,76.38
2023-09-22T06:01:33.436Z,76.03
2023-09-22T06:04:06.563Z,76.59
2023-09-22T06:06:39.196Z,76.34
2023-09-22T06:09:12.814Z,76.10
2023-09-22T06:11:45.016Z,76.17
2023-09-22T06:14:17.658Z,76.20
2023-09-22T06:16:48.120Z,76.43
2023-09-22T06:19:21.263Z,76.26
2023-09-22T06:21:53.562Z,76.35
2023-09-22T06:24:25.713Z,76.32
2023-09-22T06:26:57.765Z,76.29
2023-09-22T06:29:29.960Z,76.34
2023-09-22T06:32:02.785Z,75.78
2023-09-22T06:34:35.164Z,76.00
2023-09-22T06:37:10.304Z,75.79
2023-09-22T06:39:43.748Z,75.53
2023-09-22T06:42:16.098Z,75.66
2023-09-22T06:44:48.190Z,75.59
2023-09-22T06:47:21.601Z,75.80
2023-09-22T06:49:53.569Z,76.20
2023-09-22T06:52:25.687Z,76.32
2023-09-22T06:54:57.700Z,76.45
2023-09-22T06:57:30.258Z,77.37
2023-09-22T07:00:05.775Z,76.98
2023-09-22T07:02:38.056Z,76.98
2023-09-22T07:05:11.648Z,76.92
2023-09-22T07:07:44.048Z,76.48
2023-09-22T07:10:17.568Z,76.98
2023-09-22T07:12:49.672Z,76.74
2023-09-22T07:15:23.702Z,77.06
2023-09-22T07:17:55.932Z,77.41
2023-09-22T07:20:27.834Z,77.08
2023-09-22T07:22:59.855Z,77.35
2023-09-22T07:25:32.007Z,76.73
2023-09-22T07:28:04.118Z,77.31
2023-09-22T07:30:36.757Z,77.40
2023-09-22T07:33:10.468Z,77.19
2023-09-22T07:35:43.230Z,76.87
2023-09-22T07:38:15.761Z,77.00
2023-09-22T07:40:47.920Z,77.12
2023-09-22T07:43:20.312Z,77.02
2023-09-22T07:45:52.358Z,77.10
2023-09-22T07:48:24.572Z,76.76
2023-09-22T07:50:56.880Z,76.79
2023-09-22T07:53:30.158Z,76.64
2023-09-22T07:56:02.536Z,76.97
2023-09-22T07:58:33.155Z,77.04
2023-09-22T08:01:08.367Z,76.67
2023-09-22T08:03:40.606Z,76.65
2023-09-22T08:06:13.063Z,77.03
2023-09-22T08:08:43.734Z,76.85
2023-09-22T08:11:15.929Z,76.74
2023-09-22T08:13:48.246Z,76.67
2023-09-22T08:16:20.334Z,76.42
2023-09-22T08:18:52.503Z,76.10
2023-09-22T08:21:26.888Z,76.46
2023-09-22T08:23:59.991Z,76.17
2023-09-22T08:26:32.278Z,75.77
2023-09-22T08:29:05.773Z,75.46
2023-09-22T08:31:38.141Z,74.64
2023-09-22T08:34:10.496Z,74.22
2023-09-22T08:36:42.720Z,75.05
2023-09-22T08:39:16.972Z,74.25
2023-09-22T08:41:49.481Z,74.27
2023-09-22T08:44:20.973Z,74.43
2023-09-22T08:46:54.100Z,74.48
2023-09-22T08:49:27.624Z,74.56
2023-09-22T08:52:01.288Z,74.07
2023-09-22T08:54:33.491Z,74.08
2023-09-22T08:57:05.510Z,73.77
2023-09-22T08:59:37.817Z,73.17
2023-09-22T09:02:12.311Z,72.72
2023-09-22T09:04:44.465Z,72.75
2023-09-22T09:07:20.219Z,72.81
2023-09-22T09:09:54.137Z,72.17
2023-09-22T09:12:26.548Z,71.97
2023-09-22T09:15:01.249Z,72.32
2023-09-22T09:17:33.411Z,72.11
2023-09-22T09:20:07.097Z,71.92
2023-09-22T09:22:41.710Z,71.79
2023-09-22T09:25:16.061Z,71.74
2023-09-22T09:27:48.825Z,71.45
2023-09-22T09:30:21.740Z,71.32
2023-09-22T09:32:53.710Z,71.49
2023-09-22T09:35:44.141Z,71.41
2023-09-22T09:38:22.009Z,70.94
2023-09-22T09:40:56.429Z,70.83
2023-09-22T09:43:28.559Z,71.00
2023-09-22T09:46:00.749Z,70.98
2023-09-22T09:48:35.036Z,70.83
2023-09-22T09:51:13.919Z,70.72
2023-09-22T09:53:47.910Z,70.62
2023-09-22T09:56:21.320Z,70.31
2023-09-22T09:58:54.272Z,69.60
2023-09-22T10:01:27.146Z,69.10
2023-09-22T10:04:00.598Z,68.84
2023-09-22T10:06:38.351Z,68.86
2023-09-22T10:09:14.808Z,68.91
2023-09-22T10:11:46.930Z,67.81
2023-09-22T10:14:52.505Z,67.47
2023-09-22T10:17:26.325Z,67.50
2023-09-22T10:20:01.529Z,67.93
2023-09-22T10:22:33.775Z,67.72
2023-09-22T10:25:34.148Z,68.09
2023-09-22T10:28:10.573Z,67.60
2023-09-22T10:31:06.701Z,67.47
2023-09-22T10:33:38.958Z,67.10
2023-09-22T10:36:11.472Z,67.50
2023-09-22T10:38:55.160Z,67.38
2023-09-22T10:41:27.210Z,67.12
2023-09-22T10:44:03.257Z,67.51
2023-09-22T10:46:35.388Z,67.64
2023-09-22T10:49:07.604Z,67.52
2023-09-22T10:51:48.739Z,67.34
2023-09-22T10:54:20.852Z,67.16
2023-09-22T10:56:53.005Z,67.59
2023-09-22T10:59:34.898Z,66.88
2023-09-22T11:02:07.371Z,65.95
2023-09-22T11:04:48.330Z,65.50
2023-09-22T11:07:34.543Z,64.87
2023-09-22T11:10:07.348Z,64.35
2023-09-22T11:12:39.402Z,64.58
2023-09-22T11:15:13.076Z,64.82
2023-09-22T11:17:47.491Z,65.39
2023-09-22T11:20:27.301Z,65.64
2023-09-22T11:23:02.449Z,65.33
2023-09-22T11:25:34.621Z,64.93
2023-09-22T11:28:07.447Z,64.93
2023-09-22T11:30:41.078Z,64.45
2023-09-22T11:33:18.686Z,63.97
2023-09-22T11:35:53.762Z,63.26
2023-09-22T11:38:28.374Z,63.17
2023-09-22T11:41:10.805Z,63.14
2023-09-22T11:43:47.645Z,63.34
2023-09-22T11:46:26.519Z,63.41
2023-09-22T11:49:03.205Z,63.07
2023-09-22T11:51:51.919Z,63.15
2023-09-22T11:54:26.086Z,63.36
2023-09-22T11:57:00.467Z,63.38
2023-09-22T11:59:35.850Z,63.11
2023-09-22T12:02:08.606Z,62.30
2023-09-22T12:04:41.014Z,61.87
2023-09-22T12:07:13.609Z,61.68
2023-09-22T12:09:44.028Z,61.19
2023-09-22T12:12:17.471Z,61.48
2023-09-22T12:14:49.899Z,61.29
2023-09-22T12:17:20.747Z,61.24
2023-09-22T12:19:53.100Z,61.29
2023-09-22T12:22:23.655Z,61.95
2023-09-22T12:24:55.872Z,62.44
2023-09-22T12:27:28.422Z,63.03
2023-09-22T12:29:58.915Z,63.32
2023-09-22T12:32:31.698Z,63.80
2023-09-22T12:35:06.359Z,64.12
2023-09-22T12:37:38.605Z,64.06
2023-09-22T12:40:13.241Z,64.44
2023-09-22T12:42:45.862Z,64.19
2023-09-22T12:45:18.603Z,64.45
2023-09-22T12:47:50.733Z,63.90
2023-09-22T12:50:22.657Z,64.30
2023-09-22T12:52:54.722Z,64.25
2023-09-22T12:55:26.905Z,64.53
2023-09-22T12:57:59.371Z,64.45
2023-09-22T13:00:33.612Z,64.49
2023-09-22T13:03:06.239Z,63.96
2023-09-22T13:05:43.753Z,64.22
2023-09-22T13:08:17.050Z,64.15
2023-09-22T13:10:49.151Z,64.17
2023-09-22T13:13:21.220Z,64.24
2023-09-22T13:15:54.130Z,64.47
2023-09-22T13:18:26.303Z,64.47
2023-09-22T13:20:58.488Z,64.90
2023-09-22T13:23:31.076Z,64.85
2023-09-22T13:26:05.231Z,65.01
2023-09-22T13:28:37.278Z,65.62
2023-09-22T13:31:09.501Z,65.77
2023-09-22T13:33:41.804Z,65.69
2023-09-22T13:36:19.759Z,65.77
2023-09-22T13:38:53.033Z,66.58
2023-09-22T13:41:25.593Z,67.72
2023-09-22T13:43:58.022Z,68.26
2023-09-22T13:46:30.144Z,68.56
2023-09-22T13:49:02.272Z,68.34
2023-09-22T13:51:34.334Z,68.54
2023-09-22T13:54:06.960Z,68.55
2023-09-22T13:56:37.424Z,68.24
2023-09-22T13:59:10.046Z,68.76
2023-09-22T14:01:42.223Z,68.91
2023-09-22T14:04:14.294Z,68.79
2023-09-22T14:06:46.335Z,68.37
2023-09-22T14:09:18.260Z,68.64
2023-09-22T14:11:50.170Z,69.07
2023-09-22T14:14:22.806Z,69.30
2023-09-22T14:16:53.441Z,69.50
2023-09-22T14:19:25.989Z,69.41
2023-09-22T14:21:57.998Z,69.81
2023-09-22T14:24:29.985Z,70.01
2023-09-22T14:27:01.990Z,69.77
2023-09-22T14:29:34.013Z,69.99
2023-09-22T14:32:06.429Z,70.12
2023-09-22T14:34:38.759Z,70.55
2023-09-22T14:37:11.477Z,70.60
2023-09-22T14:39:42.699Z,70.45
2023-09-22T14:42:14.684Z,69.71
2023-09-22T14:44:46.783Z,69.21
2023-09-22T14:47:18.867Z,69.41
2023-09-22T14:49:51.123Z,69.66
2023-09-22T14:52:23.056Z,69.92
2023-09-22T14:54:56.108Z,70.10
2023-09-22T14:57:28.082Z,70.89
2023-09-22T15:00:00.226Z,71.08
2023-09-22T15:02:32.958Z,71.61
2023-09-22T15:05:04.073Z,72.24
2023-09-22T15:07:36.416Z,73.68
2023-09-22T15:10:09.975Z,74.31
2023-09-22T15:12:42.197Z,74.93
2023-09-22T15:15:12.935Z,75.44
2023-09-22T15:17:44.997Z,75.64
2023-09-22T15:20:17.192Z,75.98
2023-09-22T15:22:49.134Z,76.76
2023-09-22T15:25:21.386Z,76.64
2023-09-22T15:27:53.373Z,77.10
2023-09-22T15:30:25.767Z,77.31
2023-09-22T15:32:57.780Z,77.64
2023-09-22T15:35:29.719Z,78.21
2023-09-22T15:38:01.924Z,78.41
2023-09-22T15:40:34.095Z,78.91
2023-09-22T15:43:06.999Z,79.37
2023-09-22T15:45:38.970Z,80.10
2023-09-22T15:48:11.006Z,80.37
2023-09-22T15:50:42.976Z,81.49
2023-09-22T15:53:15.506Z,82.44
2023-09-22T15:55:46.045Z,83.51
2023-09-22T15:58:20.109Z,84.28
2023-09-22T16:00:52.617Z,84.13
2023-09-22T16:03:24.910Z,84.01
2023-09-22T16:05:59.671Z,85.47
2023-09-22T16:08:32.223Z,87.01
2023-09-22T16:11:04.545Z,87.46
2023-09-22T16:13:37.525Z,88.04
2023-09-22T16:16:10.743Z,88.10
2023-09-22T16:18:43.060Z,88.31
2023-09-22T16:21:15.063Z,88.23
2023-09-22T16:23:47.727Z,88.73
2023-09-22T16:26:18.509Z,87.77
2023-09-22T16:28:51.075Z,86.98
2023-09-22T16:31:22.405Z,86.71
2023-09-22T16:33:55.422Z,86.63
2023-09-22T16:36:27.573Z,86.90
2023-09-22T16:38:59.766Z,88.48
2023-09-22T16:41:32.074Z,89.09
2023-09-22T16:44:04.466Z,89.31
2023-09-22T16:46:36.630Z,90.42
2023-09-22T16:49:08.817Z,90.03
2023-09-22T16:51:40.848Z,89.81
2023-09-22T16:54:12.775Z,90.26
2023-09-22T16:56:44.840Z,89.49
2023-09-22T16:59:17.076Z,89.11
2023-09-22T17:01:49.066Z,88.95
2023-09-22T17:04:21.194Z,89.73
2023-09-22T17:06:53.248Z,89.85
2023-09-22T17:09:25.660Z,90.14
2023-09-22T17:11:57.576Z,91.98
2023-09-22T17:14:30.896Z,91.25
2023-09-22T17:17:04.109Z,91.48
2023-09-22T17:19:36.907Z,92.22
2023-09-22T17:22:08.013Z,92.98
2023-09-22T17:24:39.920Z,93.26
2023-09-22T17:27:12.306Z,92.47
2023-09-22T17:29:48.265Z,92.85
2023-09-22T17:32:20.265Z,93.83
2023-09-22T17:34:53.707Z,92.94
2023-09-22T17:37:25.893Z,93.08
2023-09-22T17:39:58.131Z,94.48
2023-09-22T17:42:30.064Z,94.08
2023-09-22T17:45:01.951Z,95.30
2023-09-22T17:47:34.815Z,95.28
2023-09-22T17:50:05.733Z,95.34
2023-09-22T17:52:37.648Z,94.72
2023-09-22T17:55:10.939Z,94.59
2023-09-22T17:57:42.868Z,94.98
2023-09-22T18:00:16.139Z,96.03
2023-09-22T18:02:48.234Z,96.49
2023-09-22T18:05:20.281Z,96.15
2023-09-22T18:07:52.281Z,96.66
2023-09-22T18:10:24.327Z,96.19
2023-09-22T18:12:56.529Z,97.11
2023-09-22T18:15:28.475Z,98.25
2023-09-22T18:18:00.575Z,97.28
2023-09-22T18:20:32.910Z,96.85
2023-09-22T18:23:07.804Z,96.68
2023-09-22T18:25:42.467Z,98.38
2023-09-22T18:28:14.411Z,97.01
2023-09-22T18:30:46.994Z,97.17
2023-09-22T18:33:19.374Z,96.83
2023-09-22T18:35:58.014Z,95.95
2023-09-22T18:38:30.053Z,95.60
2023-09-22T18:41:02.577Z,96.02
2023-09-22T18:43:34.689Z,96.76
2023-09-22T18:46:07.138Z,97.51
2023-09-22T18:48:39.129Z,97.13
2023-09-22T18:51:11.449Z,97.31
2023-09-22T18:53:43.521Z,97.14
2023-09-22T18:56:15.956Z,97.33
2023-09-22T18:58:49.062Z,97.56
2023-09-22T19:01:23.812Z,97.25
2023-09-22T19:03:57.392Z,97.45
2023-09-22T19:06:29.992Z,97.26
2023-09-22T19:09:02.402Z,96.28
2023-09-22T19:11:35.809Z,97.04
2023-09-22T19:14:08.410Z,96.64
2023-09-22T19:16:40.583Z,96.62
2023-09-22T19:19:13.028Z,96.84
2023-09-22T19:21:45.282Z,97.12
2023-09-22T19:24:17.498Z,97.20
2023-09-22T19:26:53.146Z,98.18
2023-09-22T19:29:25.344Z,97.53
2023-09-22T19:31:57.622Z,96.42
2023-09-22T19:34:30.816Z,96.91
2023-09-22T19:37:03.586Z,95.90
2023-09-22T19:39:34.074Z,96.09
2023-09-22T19:42:06.198Z,98.08
2023-09-22T19:44:39.059Z,98.46
2023-09-22T19:47:11.741Z,98.21
2023-09-22T19:49:44.282Z,97.89
2023-09-22T19:52:16.493Z,99.08
2023-09-22T19:54:48.541Z,99.65
2023-09-22T19:57:20.706Z,99.62
2023-09-22T19:59:52.832Z,99.66
2023-09-22T20:02:25.316Z,98.91
2023-09-22T20:04:57.702Z,99.95
2023-09-22T20:07:30.894Z,98.26
2023-09-22T20:10:02.926Z,97.86
2023-09-22T20:12:35.011Z,96.95
2023-09-22T20:15:08.536Z,97.74
2023-09-22T20:17:40.649Z,97.98
2023-09-22T20:20:14.396Z,98.14
2023-09-22T20:22:48.061Z,99.79
2023-09-22T20:25:20.445Z,97.26
2023-09-22T20:27:52.464Z,96.44
2023-09-22T20:30:24.709Z,97.51
2023-09-22T20:32:58.133Z,97.83
2023-09-22T20:35:33.053Z,97.10
2023-09-22T20:38:05.539Z,97.23
2023-09-22T20:40:37.573Z,97.61
2023-09-22T20:43:10.138Z,98.78
2023-09-22T20:45:43.243Z,97.80
2023-09-22T20:48:15.524Z,97.90
2023-09-22T20:50:50.562Z,98.70
2023-09-22T20:53:22.892Z,98.59
2023-09-22T20:55:55.073Z,98.92
2023-09-22T20:58:28.648Z,99.34
2023-09-22T21:01:07.609Z,98.63
2023-09-22T21:03:41.175Z,97.87
2023-09-22T21:06:14.502Z,97.80
2023-09-22T21:08:47.768Z,98.20
2023-09-22T21:11:20.207Z,97.18
2023-09-22T21:13:52.177Z,97.54
2023-09-22T21:16:24.488Z,97.05
2023-09-22T21:18:56.905Z,96.17
2023-09-22T21:21:29.677Z,94.66
2023-09-22T21:24:01.916Z,94.98
2023-09-22T21:26:33.947Z,94.66
2023-09-22T21:29:08.175Z,95.48
2023-09-22T21:31:41.108Z,95.20
2023-09-22T21:34:14.198Z,94.30
2023-09-22T21:36:46.403Z,94.06
2023-09-22T21:39:18.306Z,94.37
2023-09-22T21:41:50.644Z,94.55
2023-09-22T21:44:22.485Z,95.00
2023-09-22T21:46:54.525Z,95.13
2023-09-22T21:49:26.543Z,95.19
2023-09-22T21:51:58.473Z,96.47
2023-09-22T21:54:30.950Z,96.47
2023-09-22T21:57:05.825Z,95.93
2023-09-22T21:59:37.689Z,95.52
2023-09-22T22:02:09.925Z,95.55
2023-09-22T22:04:46.263Z,95.42
2023-09-22T22:07:19.129Z,95.40
2023-09-22T22:09:52.836Z,95.94
2023-09-22T22:12:25.358Z,95.58
2023-09-22T22:14:57.416Z,96.18
2023-09-22T22:17:30.164Z,97.16
2023-09-22T22:20:04.946Z,96.59
2023-09-22T22:22:37.136Z,97.26
2023-09-22T22:25:11.438Z,98.80
2023-09-22T22:27:44.194Z,98.98
2023-09-22T22:30:16.791Z,97.84
2023-09-22T22:32:49.713Z,96.89
2023-09-22T22:35:22.217Z,97.31
2023-09-22T22:37:54.187Z,97.34
2023-09-22T22:40:26.307Z,97.92
2023-09-22T22:42:58.524Z,98.93
2023-09-22T22:45:30.660Z,98.68
2023-09-22T22:48:07.930Z,98.99
2023-09-22T22:50:40.188Z,99.14
2023-09-22T22:53:12.237Z,98.72
2023-09-22T22:55:44.491Z,99.71
2023-09-22T22:58:20.803Z,100.00
2023-09-22T23:00:55.929Z,99.54
2023-09-22T23:03:30.914Z,100.00
2023-09-22T23:06:05.747Z,99.83
2023-09-22T23:08:41.115Z,99.96
2023-09-22T23:11:13.922Z,99.58
2023-09-22T23:13:47.386Z,99.28
2023-09-22T23:16:23.759Z,99.29
2023-09-22T23:18:57.147Z,99.57
2023-09-22T23:21:33.179Z,99.94
2023-09-22T23:24:11.513Z,99.98
2023-09-22T23:26:43.726Z,99.96
2023-09-22T23:29:17.169Z,100.00
2023-09-22T23:31:49.809Z,100.00
2023-09-22T23:34:22.540Z,100.00
2023-09-22T23:36:53.459Z,100.00
2023-09-22T23:39:26.319Z,99.98
2023-09-22T23:41:58.964Z,99.97
2023-09-22T23:44:29.376Z,100.00
2023-09-22T23:47:02.123Z,100.00
2023-09-22T23:49:37.696Z,100.00
2023-09-22T23:52:09.653Z,100.00
2023-09-22T23:54:41.598Z,100.00
2023-09-22T23:57:14.111Z,100.00
2023-09-22T23:59:48.999Z,99.98
